CheckWX is a tool to help pilots better visualize weather data.  It is not intended as a substitute for an official pre-flight weather briefing.

12:06:41 UTC

KMOT TAF
Minot International Airport
Minot, North Dakota, USA
KMOT 261120Z 2612/2712 23007KT P6SM SKC FM262100 32005KT P6SM FEW060 SCT150

Jun-26@
12:00 UTC

Jun-26 @ 12:00 UTC

Jun-26@
21:00 UTC

Jun-26 @ 21:00 UTC

KMOT 261120Z 2612/2712 23007KT P6SM SKC
Wind
  • 230° at 7 KTS
Cloud Levels
  • Clear skies

Jun-26@
21:00 UTC

Jun-26 @ 21:00 UTC

Jun-27@
12:00 UTC

Jun-27 @ 12:00 UTC

FM262100 32005KT P6SM FEW060 SCT150

From

From Standard forecast or significant change

Wind
  • 320° at 5 KTS
Cloud Levels
  • Few at 6,000' AGL
  • Scattered at 15,000' AGL